createdAt,value
2017-12-10T00:02:03.941Z,11.30
2017-12-10T00:04:32.155Z,7.35
2017-12-10T00:06:59.559Z,10.77
2017-12-10T00:09:26.976Z,10.60
2017-12-10T00:11:54.391Z,11.05
2017-12-10T00:14:21.798Z,10.02
2017-12-10T00:16:49.978Z,12.10
2017-12-10T00:19:18.153Z,10.80
2017-12-10T00:21:45.608Z,11.95
2017-12-10T00:24:13.058Z,11.48
2017-12-10T00:26:40.481Z,11.12
2017-12-10T00:29:07.933Z,11.32
2017-12-10T00:31:35.334Z,11.65
2017-12-10T00:34:02.776Z,11.80
2017-12-10T00:36:30.945Z,9.82
2017-12-10T00:38:58.462Z,7.97
2017-12-10T00:41:25.877Z,7.68
2017-12-10T00:43:53.291Z,10.25
2017-12-10T00:46:20.737Z,11.15
2017-12-10T00:48:48.950Z,10.10
2017-12-10T00:51:16.380Z,10.30
2017-12-10T00:53:43.809Z,9.70
2017-12-10T00:56:11.242Z,9.85
2017-12-10T00:58:38.676Z,10.05
2017-12-10T01:01:06.097Z,9.45
2017-12-10T01:03:33.517Z,10.20
2017-12-10T01:06:00.951Z,8.63
2017-12-10T01:08:28.393Z,10.40
2017-12-10T01:10:55.860Z,9.63
2017-12-10T01:13:23.310Z,9.25
2017-12-10T01:15:51.515Z,9.40
2017-12-10T01:18:18.983Z,10.15
2017-12-10T01:20:46.394Z,9.20
2017-12-10T01:23:13.817Z,8.57
2017-12-10T01:25:41.242Z,8.80
2017-12-10T01:28:08.669Z,8.32
2017-12-10T01:30:36.085Z,9.45
2017-12-10T01:33:03.518Z,8.68
2017-12-10T01:35:30.965Z,8.52
2017-12-10T01:37:58.372Z,8.40
2017-12-10T01:40:25.777Z,6.60
2017-12-10T01:42:53.972Z,7.72
2017-12-10T01:45:21.378Z,8.30
2017-12-10T01:47:48.842Z,8.18
2017-12-10T01:50:16.242Z,5.12
2017-12-10T01:52:43.659Z,7.18
2017-12-10T01:55:11.107Z,5.93
2017-12-10T01:57:39.362Z,6.85
2017-12-10T02:00:06.769Z,6.72
2017-12-10T02:02:34.260Z,8.00
2017-12-10T02:05:01.674Z,7.07
2017-12-10T02:07:29.189Z,8.38
2017-12-10T02:09:56.651Z,6.25
2017-12-10T02:12:24.061Z,7.85
2017-12-10T02:14:51.478Z,7.90
2017-12-10T02:17:19.671Z,7.43
2017-12-10T02:19:47.149Z,7.35
2017-12-10T02:22:14.566Z,6.32
2017-12-10T02:24:41.972Z,7.07
2017-12-10T02:27:09.377Z,7.22
2017-12-10T02:29:36.979Z,7.43
2017-12-10T02:32:04.400Z,6.40
2017-12-10T02:34:32.568Z,5.25
2017-12-10T02:37:00.779Z,6.40
2017-12-10T02:39:28.258Z,6.53
2017-12-10T02:41:55.672Z,6.60
2017-12-10T02:44:23.097Z,6.70
2017-12-10T02:46:50.591Z,7.00
2017-12-10T02:49:18.007Z,5.10
2017-12-10T02:51:46.235Z,5.75
2017-12-10T02:54:13.710Z,7.65
2017-12-10T02:56:41.195Z,7.95
2017-12-10T02:59:08.596Z,6.28
2017-12-10T03:01:37.191Z,6.00
2017-12-10T03:04:05.369Z,6.00
2017-12-10T03:06:33.640Z,6.10
2017-12-10T03:09:01.070Z,6.15
2017-12-10T03:11:28.512Z,6.18
2017-12-10T03:13:56.695Z,6.82
2017-12-10T03:16:24.885Z,6.20
2017-12-10T03:18:52.313Z,6.45
2017-12-10T03:21:19.750Z,4.93
2017-12-10T03:23:47.169Z,5.53
2017-12-10T03:26:14.593Z,4.03
2017-12-10T03:28:41.998Z,5.57
2017-12-10T03:31:09.446Z,5.85
2017-12-10T03:33:36.893Z,5.62
2017-12-10T03:36:04.338Z,5.85
2017-12-10T03:38:31.758Z,5.50
2017-12-10T03:40:59.266Z,6.28
2017-12-10T03:43:26.882Z,3.95
2017-12-10T03:45:54.304Z,3.85
2017-12-10T03:48:22.487Z,6.60
2017-12-10T03:50:50.686Z,5.93
2017-12-10T03:53:18.872Z,5.82
2017-12-10T03:55:46.347Z,6.00
2017-12-10T03:58:13.846Z,6.00
2017-12-10T04:00:41.277Z,5.68
2017-12-10T04:03:08.729Z,6.60
2017-12-10T04:05:36.905Z,6.62
2017-12-10T04:08:05.078Z,5.60
2017-12-10T04:10:32.499Z,5.78
2017-12-10T04:12:59.920Z,4.93
2017-12-10T04:15:27.354Z,6.30
2017-12-10T04:17:54.766Z,5.30
2017-12-10T04:20:22.960Z,5.80
2017-12-10T04:22:51.130Z,5.80
2017-12-10T04:25:19.325Z,3.83
2017-12-10T04:27:47.515Z,5.10
2017-12-10T04:30:15.736Z,5.47
2017-12-10T04:32:43.150Z,4.87
2017-12-10T04:35:10.564Z,5.22
2017-12-10T04:37:38.058Z,5.47
2017-12-10T04:40:05.489Z,4.95
2017-12-10T04:42:33.667Z,5.12
2017-12-10T04:45:01.086Z,5.07
2017-12-10T04:47:28.549Z,5.10
2017-12-10T04:49:55.952Z,3.87
2017-12-10T04:52:23.382Z,4.50
2017-12-10T04:54:50.786Z,5.53
2017-12-10T04:57:18.226Z,5.15
2017-12-10T04:59:45.667Z,4.70
2017-12-10T05:02:13.295Z,5.07
2017-12-10T05:04:40.718Z,5.97
2017-12-10T05:07:08.131Z,5.78
2017-12-10T05:09:35.635Z,5.72
2017-12-10T05:12:03.070Z,5.97
2017-12-10T05:14:30.506Z,5.32
2017-12-10T05:16:57.926Z,4.93
2017-12-10T05:19:25.336Z,6.53
2017-12-10T05:21:52.773Z,5.65
2017-12-10T05:24:20.342Z,5.97
2017-12-10T05:26:47.835Z,6.35
2017-12-10T05:29:15.261Z,6.10
2017-12-10T05:31:43.429Z,5.82
2017-12-10T05:34:10.878Z,5.87
2017-12-10T05:36:38.275Z,6.18
2017-12-10T05:39:06.496Z,5.62
2017-12-10T05:41:33.906Z,5.55
2017-12-10T05:44:01.337Z,5.25
2017-12-10T05:46:28.765Z,5.80
2017-12-10T05:48:56.995Z,5.45
2017-12-10T05:51:24.405Z,4.80
2017-12-10T05:53:51.806Z,5.10
2017-12-10T05:56:20.008Z,5.50
2017-12-10T05:58:47.494Z,4.70
2017-12-10T06:01:14.910Z,5.20
2017-12-10T06:03:42.318Z,4.80
2017-12-10T06:06:09.745Z,4.47
2017-12-10T06:08:37.161Z,3.65
2017-12-10T06:11:04.573Z,4.80
2017-12-10T06:13:32.084Z,4.50
2017-12-10T06:15:59.545Z,4.50
2017-12-10T06:18:26.967Z,4.55
2017-12-10T06:20:54.365Z,4.87
2017-12-10T06:23:22.540Z,4.72
2017-12-10T06:25:50.747Z,4.65
2017-12-10T06:28:18.163Z,5.18
2017-12-10T06:30:45.601Z,4.90
2017-12-10T06:33:13.071Z,4.57
2017-12-10T06:35:41.225Z,5.03
2017-12-10T06:38:09.410Z,4.30
2017-12-10T06:40:37.589Z,4.30
2017-12-10T06:43:05.767Z,5.07
2017-12-10T06:45:33.954Z,4.90
2017-12-10T06:48:01.453Z,4.68
2017-12-10T06:50:28.921Z,4.50
2017-12-10T06:52:56.340Z,4.78
2017-12-10T06:55:23.746Z,4.90
2017-12-10T06:57:51.918Z,4.97
2017-12-10T07:00:20.093Z,4.80
2017-12-10T07:02:47.505Z,4.80
2017-12-10T07:05:14.908Z,4.60
2017-12-10T07:07:42.336Z,4.93
2017-12-10T07:10:09.810Z,4.10
2017-12-10T07:12:37.228Z,4.00
2017-12-10T07:15:04.745Z,4.22
2017-12-10T07:17:32.161Z,4.25
2017-12-10T07:19:59.576Z,4.43
2017-12-10T07:22:27.754Z,4.30
2017-12-10T07:24:55.970Z,4.15
2017-12-10T07:27:23.387Z,4.57
2017-12-10T07:29:50.790Z,4.20
2017-12-10T07:32:18.202Z,4.05
2017-12-10T07:34:45.621Z,4.47
2017-12-10T07:37:13.048Z,4.85
2017-12-10T07:39:40.473Z,4.32
2017-12-10T07:42:07.913Z,3.87
2017-12-10T07:44:35.314Z,4.15
2017-12-10T07:47:02.723Z,4.80
2017-12-10T07:49:30.130Z,3.45
2017-12-10T07:51:57.533Z,4.45
2017-12-10T07:54:24.968Z,4.30
2017-12-10T07:56:52.458Z,4.50
2017-12-10T07:59:19.856Z,4.00
2017-12-10T08:01:47.271Z,4.30
2017-12-10T08:04:14.685Z,4.05
2017-12-10T08:06:42.226Z,4.43
2017-12-10T08:09:09.684Z,3.78
2017-12-10T08:11:37.180Z,4.10
2017-12-10T08:14:04.563Z,3.70
2017-12-10T08:16:31.968Z,4.05
2017-12-10T08:19:00.174Z,3.85
2017-12-10T08:21:27.586Z,3.67
2017-12-10T08:23:55.007Z,4.47
2017-12-10T08:26:22.478Z,4.40
2017-12-10T08:28:49.889Z,4.78
2017-12-10T08:31:17.309Z,4.40
2017-12-10T08:33:44.750Z,4.30
2017-12-10T08:36:12.191Z,3.70
2017-12-10T08:38:39.586Z,4.00
2017-12-10T08:41:07.754Z,3.92
2017-12-10T08:43:35.183Z,3.85
2017-12-10T08:46:02.641Z,3.28
2017-12-10T08:48:30.050Z,3.90
2017-12-10T08:50:57.483Z,3.75
2017-12-10T08:53:24.946Z,3.92
2017-12-10T08:55:52.378Z,3.85
2017-12-10T08:58:19.771Z,4.75
2017-12-10T09:00:47.226Z,4.87
2017-12-10T09:03:15.407Z,4.37
2017-12-10T09:05:43.578Z,4.40
2017-12-10T09:08:11.798Z,4.37
2017-12-10T09:10:39.206Z,4.50
2017-12-10T09:13:06.614Z,4.97
2017-12-10T09:15:34.828Z,4.30
2017-12-10T09:18:02.229Z,5.20
2017-12-10T09:20:29.647Z,5.40
2017-12-10T09:22:57.879Z,5.55
2017-12-10T09:25:25.315Z,4.97
2017-12-10T09:27:52.789Z,4.45
2017-12-10T09:30:20.941Z,5.60
2017-12-10T09:32:49.182Z,5.60
2017-12-10T09:35:16.629Z,6.32
2017-12-10T09:37:44.778Z,5.85
2017-12-10T09:40:12.213Z,5.22
2017-12-10T09:42:39.627Z,4.45
2017-12-10T09:45:07.837Z,6.40
2017-12-10T09:47:35.270Z,6.75
2017-12-10T09:50:03.448Z,5.70
2017-12-10T09:52:30.881Z,6.12
2017-12-10T09:54:58.296Z,6.07
2017-12-10T09:57:26.462Z,6.85
2017-12-10T09:59:54.900Z,6.75
2017-12-10T10:02:22.311Z,8.05
2017-12-10T10:04:49.738Z,5.47
2017-12-10T10:07:17.231Z,6.47
2017-12-10T10:09:44.671Z,6.40
2017-12-10T10:12:12.134Z,7.68
2017-12-10T10:14:40.294Z,6.87
2017-12-10T10:17:07.729Z,7.20
2017-12-10T10:19:35.152Z,6.50
2017-12-10T10:22:02.642Z,7.00
2017-12-10T10:24:30.103Z,6.60
2017-12-10T10:26:57.537Z,5.35
2017-12-10T10:29:24.944Z,6.78
2017-12-10T10:31:52.358Z,6.28
2017-12-10T10:34:19.754Z,7.20
2017-12-10T10:36:47.162Z,6.95
2017-12-10T10:39:14.586Z,7.10
2017-12-10T10:41:42.761Z,6.95
2017-12-10T10:44:10.167Z,6.78
2017-12-10T10:46:37.643Z,5.70
2017-12-10T10:49:05.100Z,6.57
2017-12-10T10:51:32.554Z,6.03
2017-12-10T10:53:59.963Z,5.75
2017-12-10T10:56:27.393Z,5.97
2017-12-10T10:58:55.653Z,5.10
2017-12-10T11:01:23.051Z,5.57
2017-12-10T11:03:50.487Z,6.25
2017-12-10T11:06:17.898Z,5.50
2017-12-10T11:08:45.301Z,5.40
2017-12-10T11:11:12.710Z,4.68
2017-12-10T11:13:40.901Z,4.95
2017-12-10T11:16:08.308Z,4.32
2017-12-10T11:18:35.713Z,5.20
2017-12-10T11:21:03.158Z,4.15
2017-12-10T11:23:30.594Z,4.43
2017-12-10T11:25:58.014Z,6.60
2017-12-10T11:28:25.520Z,3.85
2017-12-10T11:30:52.995Z,4.68
2017-12-10T11:33:20.406Z,4.55
2017-12-10T11:35:47.810Z,5.10
2017-12-10T11:38:16.035Z,5.03
2017-12-10T11:40:43.440Z,4.95
2017-12-10T11:43:10.859Z,5.10
2017-12-10T11:45:38.262Z,5.20
2017-12-10T11:48:05.679Z,4.30
2017-12-10T11:50:33.161Z,4.70
2017-12-10T11:53:00.594Z,5.43
2017-12-10T11:55:28.818Z,5.62
2017-12-10T11:57:56.237Z,6.15
2017-12-10T12:00:23.664Z,5.00
2017-12-10T12:02:51.135Z,4.97
2017-12-10T12:05:19.300Z,5.32
2017-12-10T12:07:47.511Z,5.15
2017-12-10T12:10:14.923Z,5.80
2017-12-10T12:12:42.362Z,4.25
2017-12-10T12:15:09.753Z,5.12
2017-12-10T12:17:37.177Z,3.85
2017-12-10T12:20:04.569Z,3.60
2017-12-10T12:22:32.010Z,4.35
2017-12-10T12:24:59.430Z,4.20
2017-12-10T12:27:26.833Z,4.65
2017-12-10T12:29:54.249Z,4.47
2017-12-10T12:32:21.712Z,3.80
2017-12-10T12:34:49.098Z,4.70
2017-12-10T12:37:16.522Z,4.25
2017-12-10T12:39:43.918Z,3.80
2017-12-10T12:42:11.338Z,4.30
2017-12-10T12:44:38.763Z,3.90
2017-12-10T12:47:06.171Z,3.62
2017-12-10T12:49:34.350Z,3.80
2017-12-10T12:52:02.564Z,4.07
2017-12-10T12:54:29.975Z,3.40
2017-12-10T12:56:57.370Z,3.62
2017-12-10T12:59:25.567Z,2.55
2017-12-10T13:01:52.981Z,3.65
2017-12-10T13:04:20.374Z,4.20
2017-12-10T13:06:47.887Z,3.75
2017-12-10T13:09:16.052Z,3.78
2017-12-10T13:11:44.245Z,3.67
2017-12-10T13:14:11.658Z,2.53
2017-12-10T13:16:39.080Z,4.70
2017-12-10T13:19:06.493Z,3.97
2017-12-10T13:21:33.949Z,3.87
2017-12-10T13:24:01.351Z,3.50
2017-12-10T13:26:28.762Z,2.95
2017-12-10T13:28:56.165Z,3.75
2017-12-10T13:31:23.573Z,2.40
2017-12-10T13:33:51.755Z,4.15
2017-12-10T13:36:19.166Z,4.40
2017-12-10T13:38:46.573Z,3.80
2017-12-10T13:41:13.986Z,3.05
2017-12-10T13:43:41.425Z,4.87
2017-12-10T13:46:08.827Z,3.30
2017-12-10T13:48:36.227Z,3.30
2017-12-10T13:51:03.641Z,3.92
2017-12-10T13:53:31.818Z,3.62
2017-12-10T13:55:59.988Z,2.87
2017-12-10T13:58:27.502Z,2.90
2017-12-10T14:00:55.690Z,3.65
2017-12-10T14:03:23.109Z,3.45
2017-12-10T14:05:50.583Z,3.00
2017-12-10T14:08:17.998Z,2.85
2017-12-10T14:10:45.418Z,3.37
2017-12-10T14:13:13.639Z,3.12
2017-12-10T14:15:41.049Z,3.05
2017-12-10T14:18:08.478Z,3.55
2017-12-10T14:20:35.908Z,4.45
2017-12-10T14:23:03.343Z,6.03
2017-12-10T14:25:30.757Z,4.60
2017-12-10T14:27:58.365Z,4.03
2017-12-10T14:30:25.778Z,4.37
2017-12-10T14:32:53.185Z,4.22
2017-12-10T14:35:20.599Z,3.97
2017-12-10T14:37:48.022Z,3.80
2017-12-10T14:40:15.430Z,4.32
2017-12-10T14:42:42.849Z,4.45
2017-12-10T14:45:11.017Z,4.55
2017-12-10T14:47:38.450Z,3.55
2017-12-10T14:50:05.858Z,4.03
2017-12-10T14:52:34.042Z,4.15
2017-12-10T14:55:02.223Z,5.47
2017-12-10T14:57:29.638Z,4.20
2017-12-10T14:59:57.071Z,4.15
2017-12-10T15:02:25.283Z,3.50
2017-12-10T15:04:52.686Z,3.47
2017-12-10T15:07:20.122Z,2.72
2017-12-10T15:09:47.537Z,3.40
2017-12-10T15:12:14.949Z,2.87
2017-12-10T15:14:42.365Z,3.75
2017-12-10T15:17:09.818Z,2.83
2017-12-10T15:19:37.251Z,2.53
2017-12-10T15:22:04.722Z,2.78
2017-12-10T15:24:32.929Z,1.98
2017-12-10T15:27:00.371Z,2.15
2017-12-10T15:29:27.786Z,3.25
2017-12-10T15:31:55.228Z,2.50
2017-12-10T15:34:22.626Z,1.77
2017-12-10T15:36:50.035Z,3.33
2017-12-10T15:39:18.234Z,2.05
2017-12-10T15:41:45.690Z,2.72
2017-12-10T15:44:13.098Z,3.75
2017-12-10T15:46:40.535Z,2.58
2017-12-10T15:49:08.021Z,3.15
2017-12-10T15:51:35.418Z,2.22
2017-12-10T15:54:02.832Z,2.17
2017-12-10T15:56:31.022Z,3.03
2017-12-10T15:58:58.462Z,2.10
2017-12-10T16:01:25.880Z,3.53
2017-12-10T16:03:53.299Z,3.30
2017-12-10T16:06:20.730Z,2.00
2017-12-10T16:08:48.150Z,4.45
2017-12-10T16:11:16.326Z,4.68
2017-12-10T16:13:43.750Z,4.22
2017-12-10T16:16:11.144Z,4.55
2017-12-10T16:18:38.581Z,6.07
2017-12-10T16:21:06.092Z,5.37
2017-12-10T16:23:33.526Z,4.00
2017-12-10T16:26:00.938Z,5.85
2017-12-10T16:28:28.370Z,5.95
2017-12-10T16:30:55.832Z,8.93
2017-12-10T16:33:23.234Z,7.18
2017-12-10T16:35:50.697Z,7.50
2017-12-10T16:38:18.126Z,9.55
2017-12-10T16:40:45.543Z,6.53
2017-12-10T16:43:12.942Z,5.00
2017-12-10T16:45:41.122Z,7.65
2017-12-10T16:48:09.314Z,6.07
2017-12-10T16:50:36.729Z,6.65
2017-12-10T16:53:04.188Z,6.62
2017-12-10T16:55:31.574Z,6.43
2017-12-10T16:57:58.987Z,5.20
2017-12-10T17:00:26.397Z,4.72
2017-12-10T17:02:53.818Z,5.80
2017-12-10T17:05:22.019Z,4.78
2017-12-10T17:07:49.427Z,6.10
2017-12-10T17:10:16.830Z,4.75
2017-12-10T17:12:45.006Z,4.18
2017-12-10T17:15:12.418Z,6.75
2017-12-10T17:17:39.881Z,6.53
2017-12-10T17:20:08.048Z,5.15
2017-12-10T17:22:35.474Z,4.87
2017-12-10T17:25:02.878Z,4.07
2017-12-10T17:27:30.317Z,4.30
2017-12-10T17:29:57.757Z,4.20
2017-12-10T17:32:25.182Z,4.07
2017-12-10T17:34:52.602Z,4.50
2017-12-10T17:37:20.054Z,4.82
2017-12-10T17:39:47.501Z,3.50
2017-12-10T17:42:15.675Z,3.42
2017-12-10T17:44:43.852Z,3.87
2017-12-10T17:47:11.255Z,2.42
2017-12-10T17:49:38.690Z,3.75
2017-12-10T17:52:06.119Z,4.90
2017-12-10T17:54:33.536Z,4.65
2017-12-10T17:57:00.943Z,4.70
2017-12-10T17:59:28.361Z,3.40
2017-12-10T18:01:55.870Z,3.25
2017-12-10T18:04:23.303Z,5.62
2017-12-10T18:06:50.820Z,4.82
2017-12-10T18:09:18.296Z,5.82
2017-12-10T18:11:45.718Z,5.22
2017-12-10T18:14:13.162Z,3.55
2017-12-10T18:16:40.588Z,5.80
2017-12-10T18:19:08.020Z,6.32
2017-12-10T18:21:35.527Z,5.75
2017-12-10T18:24:02.990Z,5.65
2017-12-10T18:26:30.449Z,3.90
2017-12-10T18:28:57.890Z,6.40
2017-12-10T18:31:25.302Z,5.60
2017-12-10T18:33:52.708Z,3.20
2017-12-10T18:36:20.147Z,5.05
2017-12-10T18:38:47.564Z,5.07
2017-12-10T18:41:15.086Z,3.47
2017-12-10T18:43:42.494Z,5.55
2017-12-10T18:46:09.955Z,6.87
2017-12-10T18:48:37.409Z,5.93
2017-12-10T18:51:04.856Z,4.50
2017-12-10T18:53:33.002Z,5.57
2017-12-10T18:56:00.462Z,5.90
2017-12-10T18:58:27.873Z,6.35
2017-12-10T19:00:56.068Z,3.40
2017-12-10T19:03:23.538Z,3.80
2017-12-10T19:05:50.985Z,5.55
2017-12-10T19:08:19.157Z,4.82
2017-12-10T19:10:47.385Z,4.57
2017-12-10T19:13:14.798Z,3.65
2017-12-10T19:15:42.248Z,8.13
2017-12-10T19:18:09.686Z,8.25
2017-12-10T19:20:37.077Z,6.32
2017-12-10T19:23:04.512Z,8.10
2017-12-10T19:25:31.924Z,7.10
2017-12-10T19:27:59.338Z,7.18
2017-12-10T19:30:26.763Z,6.70
2017-12-10T19:32:54.271Z,7.43
2017-12-10T19:35:21.678Z,7.72
2017-12-10T19:37:49.112Z,8.68
2017-12-10T19:40:16.513Z,6.87
2017-12-10T19:42:44.013Z,7.25
2017-12-10T19:45:11.422Z,8.02
2017-12-10T19:47:38.833Z,9.60
2017-12-10T19:50:06.238Z,9.13
2017-12-10T19:52:33.650Z,9.15
2017-12-10T19:55:01.050Z,8.60
2017-12-10T19:57:28.466Z,8.68
2017-12-10T19:59:55.870Z,9.65
2017-12-10T20:02:24.049Z,11.00
2017-12-10T20:04:54.338Z,10.40
2017-12-10T20:07:21.791Z,11.45
2017-12-10T20:09:49.257Z,10.75
2017-12-10T20:12:16.710Z,10.40
2017-12-10T20:14:44.095Z,9.45
2017-12-10T20:17:11.506Z,9.50
2017-12-10T20:19:38.927Z,9.38
2017-12-10T20:22:06.963Z,9.25
2017-12-10T20:24:34.373Z,9.50
2017-12-10T20:27:01.855Z,9.50
2017-12-10T20:29:29.265Z,8.45
2017-12-10T20:31:56.670Z,8.68
2017-12-10T20:34:24.849Z,7.35
2017-12-10T20:36:53.028Z,7.45
2017-12-10T20:39:21.198Z,8.05
2017-12-10T20:41:48.631Z,7.93
2017-12-10T20:44:16.077Z,7.70
2017-12-10T20:46:43.586Z,6.78
2017-12-10T20:49:11.008Z,7.35
2017-12-10T20:51:39.218Z,7.37
2017-12-10T20:54:07.436Z,6.10
2017-12-10T20:56:35.606Z,6.30
2017-12-10T20:59:03.770Z,6.72
2017-12-10T21:01:31.184Z,5.25
2017-12-10T21:03:58.594Z,6.20
2017-12-10T21:06:26.010Z,6.35
2017-12-10T21:08:53.448Z,6.40
2017-12-10T21:11:20.905Z,6.75
2017-12-10T21:13:48.306Z,7.47
2017-12-10T21:16:16.518Z,9.05
2017-12-10T21:18:44.102Z,7.70
2017-12-10T21:21:11.509Z,7.05
2017-12-10T21:23:38.994Z,6.12
2017-12-10T21:26:07.315Z,6.85
2017-12-10T21:28:35.464Z,6.03
2017-12-10T21:31:03.635Z,6.93
2017-12-10T21:33:31.146Z,5.37
2017-12-10T21:35:58.549Z,4.78
2017-12-10T21:38:25.975Z,5.40
2017-12-10T21:40:53.398Z,5.47
2017-12-10T21:43:20.822Z,4.45
2017-12-10T21:45:48.975Z,4.28
2017-12-10T21:48:17.178Z,4.10
2017-12-10T21:50:45.371Z,4.20
2017-12-10T21:53:12.808Z,3.80
2017-12-10T21:55:40.208Z,4.10
2017-12-10T21:58:07.738Z,4.55
2017-12-10T22:00:35.922Z,3.40
2017-12-10T22:03:03.341Z,3.30
2017-12-10T22:05:30.769Z,3.75
2017-12-10T22:07:58.160Z,3.20
2017-12-10T22:10:26.343Z,3.03
2017-12-10T22:12:53.759Z,3.55
2017-12-10T22:15:21.203Z,3.40
2017-12-10T22:17:48.614Z,3.30
2017-12-10T22:20:16.159Z,3.95
2017-12-10T22:22:43.566Z,3.87
2017-12-10T22:25:11.759Z,7.03
2017-12-10T22:27:39.970Z,3.28
2017-12-10T22:30:08.141Z,4.50
2017-12-10T22:32:36.322Z,4.05
2017-12-10T22:35:04.515Z,3.80
2017-12-10T22:37:32.692Z,4.55
2017-12-10T22:40:00.870Z,3.35
2017-12-10T22:42:29.053Z,2.35
2017-12-10T22:44:56.461Z,2.40
2017-12-10T22:47:24.643Z,2.45
2017-12-10T22:49:52.202Z,2.30
2017-12-10T22:52:20.371Z,1.65
2017-12-10T22:54:48.577Z,2.00
2017-12-10T22:57:16.747Z,1.75
2017-12-10T22:59:44.927Z,1.83
2017-12-10T23:02:12.353Z,2.00
2017-12-10T23:04:39.756Z,2.00
2017-12-10T23:07:07.198Z,1.37
2017-12-10T23:09:34.620Z,2.05
2017-12-10T23:12:02.025Z,1.87
2017-12-10T23:14:42.268Z,1.67
2017-12-10T23:17:09.748Z,1.70
2017-12-10T23:19:37.160Z,1.90
2017-12-10T23:22:04.686Z,2.30
2017-12-10T23:24:32.093Z,2.10
2017-12-10T23:26:59.509Z,1.90
2017-12-10T23:29:26.926Z,1.65
2017-12-10T23:31:54.342Z,2.22
2017-12-10T23:34:21.826Z,1.90
2017-12-10T23:36:49.294Z,1.62
2017-12-10T23:39:16.704Z,2.00
2017-12-10T23:41:44.120Z,2.00
2017-12-10T23:44:11.536Z,2.37
2017-12-10T23:46:38.973Z,2.67
2017-12-10T23:49:06.374Z,3.05
2017-12-10T23:51:33.787Z,3.47
2017-12-10T23:54:01.190Z,3.35
2017-12-10T23:56:28.626Z,3.12
2017-12-10T23:58:56.050Z,3.60
